Time;durP1;ratioP1;P1;durP2;ratioP2;P2;SDS_P1;SDS_P2;PMS_P1;PMS_P2;Temp;Humidity;BMP_temperature;BMP_pressure;BME280_temperature;BME280_humidity;BME280_pressure;Samples;Min_cycle;Max_cycle;Signal;HPM_P1;HPM_P2
2022/07/21 00:00:35;;;;;;;26.83;22.02;;;;;;;19.78;86.82;101650.34;5014722;28;20099;-59
2022/07/21 00:03:01;;;;;;;27.33;21.67;;;;;;;19.74;86.15;101652.22;5014674;28;20340;-59
2022/07/21 00:05:27;;;;;;;26.55;21.20;;;;;;;19.71;86.81;101641.69;5014634;28;20034;-59
2022/07/21 00:07:53;;;;;;;26.52;20.27;;;;;;;19.72;86.10;101646.16;5014396;28;20074;-59
2022/07/21 00:10:20;;;;;;;25.70;19.65;;;;;;;19.72;84.91;101636.88;5014626;28;20028;-59
2022/07/21 00:12:46;;;;;;;25.00;20.08;;;;;;;19.71;85.61;101630.47;5014270;28;20030;-59
2022/07/21 00:15:14;;;;;;;24.45;19.27;;;;;;;19.55;85.03;101632.34;5014657;28;20167;-60
2022/07/21 00:17:40;;;;;;;24.00;17.92;;;;;;;19.55;84.70;101641.56;5014323;28;20026;-59
2022/07/21 00:20:08;;;;;;;25.15;18.35;;;;;;;19.48;85.32;101644.13;5014028;28;20069;-59
2022/07/21 00:22:33;;;;;;;24.05;18.55;;;;;;;19.42;85.41;101640.72;5014085;28;20037;-59
2022/07/21 00:24:58;;;;;;;23.73;17.25;;;;;;;19.37;85.47;101640.94;5014203;28;20018;-60
2022/07/21 00:27:24;;;;;;;24.55;17.02;;;;;;;19.38;84.82;101645.38;5014159;28;20032;-60
2022/07/21 00:29:50;;;;;;;24.58;17.85;;;;;;;19.35;85.78;101651.69;5014196;28;20061;-60
2022/07/21 00:32:15;;;;;;;23.00;17.02;;;;;;;19.36;85.21;101649.69;5014126;28;20078;-59
2022/07/21 00:34:41;;;;;;;24.42;17.08;;;;;;;19.34;84.98;101644.44;5013991;28;20387;-60
2022/07/21 00:37:06;;;;;;;22.35;16.92;;;;;;;19.32;84.75;101638.38;5014358;28;20542;-60
2022/07/21 00:39:31;;;;;;;23.20;18.10;;;;;;;19.28;85.01;101645.81;5014016;28;20033;-60
2022/07/21 00:41:57;;;;;;;22.85;17.08;;;;;;;19.26;84.80;101646.19;5013332;28;20030;-59
2022/07/21 00:44:24;;;;;;;22.38;17.38;;;;;;;19.31;84.81;101639.53;5013031;28;20030;-60
2022/07/21 00:46:50;;;;;;;24.13;18.05;;;;;;;19.21;85.15;101638.00;5013836;28;20064;-60
2022/07/21 00:49:16;;;;;;;23.70;17.65;;;;;;;19.13;85.84;101634.09;5013770;28;20062;-59
2022/07/21 00:51:41;;;;;;;22.33;16.80;;;;;;;19.14;85.55;101630.13;5013743;28;20034;-59
2022/07/21 00:54:06;;;;;;;23.38;17.67;;;;;;;19.18;85.07;101633.06;5013614;28;20034;-59
2022/07/21 00:56:32;;;;;;;23.25;17.40;;;;;;;19.15;85.59;101634.59;5013251;28;20117;-59
2022/07/21 00:58:57;;;;;;;24.13;17.55;;;;;;;19.12;85.60;101628.84;5013584;28;20022;-59
2022/07/21 01:01:23;;;;;;;23.67;18.02;;;;;;;19.10;85.99;101629.19;5013413;28;20120;-59
2022/07/21 01:03:48;;;;;;;24.23;18.05;;;;;;;19.01;86.51;101620.88;5013385;28;20065;-59
2022/07/21 01:06:13;;;;;;;25.42;18.33;;;;;;;18.97;86.38;101625.53;5013251;28;20117;-59
2022/07/21 01:08:39;;;;;;;23.95;17.33;;;;;;;18.89;86.96;101622.78;5013364;28;20033;-59
2022/07/21 01:11:04;;;;;;;24.58;17.92;;;;;;;18.86;86.72;101615.84;5013198;28;20474;-59
2022/07/21 01:13:30;;;;;;;23.60;17.45;;;;;;;18.89;86.78;101615.19;5013400;28;20126;-59
2022/07/21 01:15:55;;;;;;;23.65;16.95;;;;;;;18.86;86.38;101615.84;4995549;28;20116;-59
2022/07/21 01:18:21;;;;;;;24.40;18.17;;;;;;;18.88;86.45;101618.34;5013309;28;20478;-59
2022/07/21 01:20:53;;;;;;;23.98;17.95;;;;;;;18.87;86.65;101614.69;5013206;28;20045;-59
2022/07/21 01:23:20;;;;;;;23.30;17.75;;;;;;;18.80;86.82;101612.44;5013117;28;20026;-59
2022/07/21 01:25:49;;;;;;;25.15;18.20;;;;;;;18.74;87.57;101613.84;5013004;28;20468;-59
2022/07/21 01:28:15;;;;;;;23.92;18.02;;;;;;;18.66;87.58;101618.34;5013055;28;20068;-59
2022/07/21 01:30:40;;;;;;;24.73;18.80;;;;;;;18.65;88.01;101616.72;5012935;28;20026;-58
2022/07/21 01:33:05;;;;;;;25.42;19.45;;;;;;;18.60;88.46;101605.72;5012832;28;20034;-59
2022/07/21 01:35:31;;;;;;;24.20;18.70;;;;;;;18.57;88.46;101608.38;5012859;28;20121;-59
2022/07/21 01:37:58;;;;;;;25.67;18.90;;;;;;;18.55;88.52;101617.16;5012757;28;20022;-59
2022/07/21 01:43:08;;;;;;;25.55;19.50;;;;;;;18.49;89.37;101605.31;5012873;28;20120;-59
2022/07/21 01:45:33;;;;;;;25.52;19.00;;;;;;;18.48;89.41;101600.88;5012716;28;20054;-59
2022/07/21 01:47:59;;;;;;;25.40;18.90;;;;;;;18.42;89.83;101604.22;5012728;28;20034;-59
2022/07/21 01:50:26;;;;;;;25.70;19.23;;;;;;;18.38;89.99;101607.69;5012594;28;20076;-59
2022/07/21 01:52:53;;;;;;;25.48;19.25;;;;;;;18.34;90.46;101601.16;5012676;28;20068;-59
2022/07/21 01:55:19;;;;;;;26.52;19.90;;;;;;;18.31;90.77;101604.63;5012247;28;20033;-59
2022/07/21 01:57:44;;;;;;;28.35;19.88;;;;;;;18.32;90.78;101606.25;5012606;28;20021;-59
2022/07/21 02:00:10;;;;;;;25.42;20.17;;;;;;;18.34;90.74;101608.72;5012297;28;20030;-59
2022/07/21 02:02:36;;;;;;;25.30;20.13;;;;;;;18.40;90.32;101613.78;5012204;28;20129;-59
2022/07/21 02:05:01;;;;;;;24.45;19.40;;;;;;;18.43;90.55;101612.28;5012405;28;20065;-59
2022/07/21 02:07:26;;;;;;;25.05;19.75;;;;;;;18.49;90.43;101613.72;5012204;28;20053;-59
2022/07/21 02:09:52;;;;;;;25.63;19.98;;;;;;;18.50;90.44;101614.53;4994537;28;20028;-59
2022/07/21 02:12:17;;;;;;;25.45;19.73;;;;;;;18.54;90.18;101613.50;5012292;28;20026;-59
2022/07/21 02:14:42;;;;;;;25.95;20.10;;;;;;;18.54;89.68;101609.91;5012370;28;20041;-59
2022/07/21 02:17:07;;;;;;;25.98;19.85;;;;;;;18.55;89.69;101606.75;5012090;28;20386;-59
2022/07/21 02:19:33;;;;;;;25.60;19.58;;;;;;;18.60;89.33;101610.50;5012379;28;20144;-59
2022/07/21 02:21:58;;;;;;;26.73;20.30;;;;;;;18.63;88.79;101610.66;5011866;28;20018;-59
2022/07/21 02:24:23;;;;;;;28.67;21.67;;;;;;;18.62;89.83;101608.16;5012038;28;20036;-59
2022/07/21 02:26:49;;;;;;;27.30;21.08;;;;;;;18.62;89.51;101603.41;5012049;28;20077;-59
2022/07/21 02:29:14;;;;;;;25.88;19.25;;;;;;;18.68;88.70;101609.63;5012044;28;20386;-59
2022/07/21 02:31:39;;;;;;;26.05;20.50;;;;;;;18.64;88.71;101608.66;5012006;28;20419;-60
2022/07/21 02:34:06;;;;;;;25.77;20.17;;;;;;;18.60;89.28;101607.72;5011770;28;20026;-61
2022/07/21 02:36:31;;;;;;;26.90;20.55;;;;;;;18.61;88.82;101607.34;5011800;28;20040;-59
2022/07/21 02:38:56;;;;;;;24.90;19.95;;;;;;;18.58;89.22;101596.81;5011647;28;20018;-59
2022/07/21 02:41:22;;;;;;;27.20;20.13;;;;;;;18.58;89.16;101601.63;5011926;28;20033;-59
2022/07/21 02:43:47;;;;;;;27.30;20.95;;;;;;;18.53;89.55;101603.47;5011400;28;20021;-60
2022/07/21 02:46:12;;;;;;;26.85;20.35;;;;;;;18.51;89.58;101597.41;5011497;28;20030;-60
2022/07/21 02:48:38;;;;;;;26.27;20.13;;;;;;;18.51;89.43;101590.97;5011504;28;20026;-60
2022/07/21 02:51:03;;;;;;;26.33;20.02;;;;;;;18.49;89.83;101588.50;5011411;28;20048;-60
2022/07/21 02:53:29;;;;;;;26.50;19.98;;;;;;;18.50;90.02;101590.16;5011492;28;20033;-60
2022/07/21 02:55:55;;;;;;;25.92;19.83;;;;;;;18.41;90.45;101581.00;5011707;28;20026;-59
2022/07/21 02:58:26;;;;;;;27.40;20.50;;;;;;;18.41;90.93;101586.59;5011387;28;20542;-59
2022/07/21 03:01:03;;;;;;;26.10;20.65;;;;;;;18.32;90.98;101581.06;5011399;28;20078;-60
2022/07/21 03:03:31;;;;;;;27.00;20.27;;;;;;;18.31;91.16;101582.22;5011154;28;20490;-60
2022/07/21 03:05:57;;;;;;;26.52;20.08;;;;;;;18.32;91.31;101585.84;5010917;28;20026;-59
2022/07/21 03:08:23;;;;;;;28.08;21.00;;;;;;;18.30;91.75;101588.16;5011543;28;20033;-59
2022/07/21 03:10:49;;;;;;;27.88;20.50;;;;;;;18.32;91.25;101589.47;4993663;28;20117;-59
2022/07/21 03:13:15;;;;;;;27.15;20.17;;;;;;;18.34;91.66;101598.34;5011483;28;20105;-59
2022/07/21 03:15:40;;;;;;;28.92;21.00;;;;;;;18.36;91.37;101586.78;5011383;28;20448;-60
2022/07/21 03:18:06;;;;;;;28.50;20.88;;;;;;;18.36;91.20;101586.78;5010958;28;20328;-60
2022/07/21 03:20:35;;;;;;;30.55;21.02;;;;;;;18.32;91.39;101583.06;5011399;28;20088;-60
2022/07/21 03:23:01;;;;;;;28.48;21.50;;;;;;;18.32;92.12;101586.66;5011175;28;20022;-60
2022/07/21 03:25:26;;;;;;;28.42;21.88;;;;;;;18.31;92.16;101587.81;5011161;28;20030;-60
2022/07/21 03:27:52;;;;;;;27.35;21.40;;;;;;;18.34;91.90;101592.75;5011341;28;20030;-60
2022/07/21 03:30:18;;;;;;;27.60;21.45;;;;;;;18.33;92.15;101587.47;5011345;28;20029;-60
2022/07/21 03:32:44;;;;;;;28.70;22.48;;;;;;;18.32;91.84;101580.25;4993576;28;20026;-60
2022/07/21 03:35:10;;;;;;;28.15;22.15;;;;;;;18.32;91.96;101583.06;5011240;28;20041;-60
2022/07/21 03:37:51;;;;;;;31.50;22.63;;;;;;;18.34;91.63;101584.34;5011074;28;20050;-60
2022/07/21 03:40:19;;;;;;;28.25;23.25;;;;;;;18.36;91.79;101584.81;5011454;28;20108;-60
2022/07/21 03:42:45;;;;;;;30.92;23.15;;;;;;;18.32;92.66;101588.66;5011201;28;20030;-60
2022/07/21 03:45:10;;;;;;;28.55;22.23;;;;;;;18.32;92.26;101589.47;5010892;28;20040;-60
2022/07/21 03:47:36;;;;;;;29.83;23.33;;;;;;;18.34;91.98;101598.34;5010939;28;20029;-60
2022/07/21 03:50:02;;;;;;;29.08;23.92;;;;;;;18.32;91.83;101602.66;5011194;28;20073;-60
2022/07/21 03:52:28;;;;;;;31.25;23.88;;;;;;;18.31;92.33;101606.63;5011079;28;20029;-60
2022/07/21 03:55:07;;;;;;;29.35;23.75;;;;;;;18.32;91.93;101600.66;5011156;28;20026;-60
2022/07/21 03:57:37;;;;;;;30.27;23.15;;;;;;;18.30;92.25;101602.97;5011157;28;20029;-60
2022/07/21 04:00:05;;;;;;;29.92;23.38;;;;;;;18.25;92.28;101594.78;5011129;28;20394;-60
2022/07/21 04:02:31;;;;;;;30.88;24.30;;;;;;;18.28;92.35;101599.69;5010919;28;20018;-60
2022/07/21 04:04:56;;;;;;;30.40;24.02;;;;;;;18.30;92.26;101608.59;5010751;28;20104;-60
2022/07/21 04:07:21;;;;;;;30.10;23.88;;;;;;;18.32;92.22;101602.66;5010848;28;20048;-60
2022/07/21 04:09:46;;;;;;;30.48;24.25;;;;;;;18.32;92.28;101608.25;5010781;28;20084;-60
2022/07/21 04:12:12;;;;;;;30.48;24.05;;;;;;;18.36;92.10;101598.00;5010691;28;20050;-60
2022/07/21 04:14:37;;;;;;;29.65;23.65;;;;;;;18.36;91.96;101595.19;5011180;28;20405;-60
2022/07/21 04:17:03;;;;;;;30.20;23.77;;;;;;;18.34;92.08;101597.50;5011399;28;20113;-60
2022/07/21 04:19:28;;;;;;;30.70;23.85;;;;;;;18.32;92.50;101600.66;5014286;28;20046;-60
2022/07/21 04:21:54;;;;;;;29.77;24.25;;;;;;;18.30;92.74;101602.16;5014231;28;20053;-60
2022/07/21 04:24:19;;;;;;;30.67;24.35;;;;;;;18.31;92.37;101599.03;5013866;28;20030;-60
2022/07/21 04:26:44;;;;;;;30.42;24.70;;;;;;;18.30;92.87;101597.38;5013966;28;20033;-60
2022/07/21 04:29:09;;;;;;;30.63;24.42;;;;;;;18.33;92.53;101601.47;5014087;28;20725;-60
2022/07/21 04:31:35;;;;;;;31.90;24.63;;;;;;;18.28;92.82;101601.69;5014070;28;20030;-60
2022/07/21 04:34:00;;;;;;;30.00;24.38;;;;;;;18.27;92.76;101595.28;5014026;28;20445;-60
2022/07/21 04:36:25;;;;;;;28.90;23.45;;;;;;;18.30;92.76;101594.56;5013936;28;20030;-60
2022/07/21 04:38:51;;;;;;;30.50;24.30;;;;;;;18.32;92.46;101588.66;5013632;28;20026;-60
2022/07/21 04:41:16;;;;;;;30.42;24.45;;;;;;;18.31;92.27;101587.00;4996139;28;20030;-60
2022/07/21 04:43:41;;;;;;;30.50;23.50;;;;;;;18.32;92.30;101595.06;5013531;28;20030;-60
2022/07/21 04:46:07;;;;;;;28.55;21.77;;;;;;;18.38;92.10;101590.88;5013509;28;20045;-60
2022/07/21 04:48:32;;;;;;;29.48;22.73;;;;;;;18.34;92.15;101597.50;5013466;28;20068;-60
2022/07/21 04:50:58;;;;;;;29.48;22.27;;;;;;;18.37;92.12;101592.03;5013429;28;20110;-59
2022/07/21 04:53:23;;;;;;;28.48;21.95;;;;;;;18.37;92.20;101596.84;5013217;28;20028;-60
2022/07/21 04:55:49;;;;;;;29.20;21.70;;;;;;;18.38;92.03;101599.28;5013399;28;20022;-60
2022/07/21 04:58:15;;;;;;;29.50;20.77;;;;;;;18.38;91.68;101601.28;5013310;28;20112;-59
2022/07/21 05:00:40;;;;;;;28.02;21.50;;;;;;;18.38;91.72;101604.09;5013319;28;20080;-59
2022/07/21 05:03:06;;;;;;;28.20;22.30;;;;;;;18.38;92.43;101602.09;5013203;28;20025;-59
2022/07/21 05:05:31;;;;;;;27.42;21.92;;;;;;;18.37;92.22;101602.44;5013012;28;20446;-59
2022/07/21 05:07:56;;;;;;;30.10;22.38;;;;;;;18.39;92.10;101602.94;5013444;28;20093;-60
2022/07/21 05:10:23;;;;;;;28.42;21.13;;;;;;;18.40;92.01;101605.38;5013059;28;20052;-59
2022/07/21 05:12:48;;;;;;;27.05;19.77;;;;;;;18.42;91.76;101602.22;5013046;28;20034;-59
2022/07/21 05:15:13;;;;;;;27.88;20.50;;;;;;;18.37;91.63;101602.44;5012917;28;20030;-59
2022/07/21 05:17:40;;;;;;;28.08;20.60;;;;;;;18.38;91.77;101595.69;5013431;28;20026;-59
2022/07/21 05:20:07;;;;;;;27.55;20.73;;;;;;;18.33;92.51;101593.06;5012792;28;20497;-59
2022/07/21 05:22:32;;;;;;;27.98;21.45;;;;;;;18.28;93.19;101604.50;5013084;28;20042;-59
2022/07/21 05:24:58;;;;;;;27.70;21.10;;;;;;;18.34;92.98;101603.13;5013042;28;20036;-59
2022/07/21 05:27:23;;;;;;;27.70;19.90;;;;;;;18.35;93.15;101597.19;5012990;28;20109;-59
2022/07/21 05:29:48;;;;;;;27.70;21.40;;;;;;;18.37;93.42;101608.03;5012329;28;20091;-59
2022/07/21 05:32:14;;;;;;;27.85;21.33;;;;;;;18.37;93.23;101613.66;5013248;28;20049;-59
2022/07/21 05:34:40;;;;;;;27.60;21.33;;;;;;;18.33;93.35;101607.06;5013065;28;20096;-59
2022/07/21 05:37:05;;;;;;;28.45;22.15;;;;;;;18.33;93.64;101605.09;4995032;28;20038;-59
2022/07/21 05:39:31;;;;;;;28.38;21.30;;;;;;;18.40;93.35;101598.97;5012708;28;20072;-59
2022/07/21 05:41:56;;;;;;;29.38;21.60;;;;;;;18.45;93.36;101597.94;5012982;28;20184;-59
2022/07/21 05:44:21;;;;;;;28.60;20.63;;;;;;;18.48;93.23;101589.66;5012781;28;20422;-59
2022/07/21 05:46:47;;;;;;;27.15;21.10;;;;;;;18.52;92.30;101595.41;5012681;28;20025;-59
2022/07/21 05:49:12;;;;;;;27.92;21.38;;;;;;;18.53;92.44;101597.84;5012571;28;20133;-59
2022/07/21 05:51:37;;;;;;;27.85;20.42;;;;;;;18.61;92.37;101598.16;5012794;28;20026;-60
2022/07/21 05:54:03;;;;;;;26.98;20.33;;;;;;;18.64;90.96;101600.25;5012479;28;20033;-60
2022/07/21 05:56:28;;;;;;;27.00;20.38;;;;;;;18.68;90.58;101602.00;5012194;28;20030;-61
2022/07/21 05:58:53;;;;;;;27.45;20.58;;;;;;;18.65;90.65;101599.09;5012568;28;20030;-60
2022/07/21 06:01:19;;;;;;;29.42;21.08;;;;;;;18.66;90.54;101583.91;5012602;28;20115;-61
2022/07/21 06:03:46;;;;;;;28.00;19.40;;;;;;;18.65;90.27;101593.47;5012529;28;20118;-60
2022/07/21 06:06:13;;;;;;;27.35;19.88;;;;;;;18.69;89.59;101588.84;5012469;28;20048;-60
2022/07/21 06:08:40;;;;;;;28.58;19.90;;;;;;;18.67;90.15;101591.97;5012231;28;20163;-60
2022/07/21 06:11:06;;;;;;;27.20;20.50;;;;;;;18.68;89.12;101585.19;4994381;28;20117;-60
2022/07/21 06:13:32;;;;;;;25.58;20.08;;;;;;;18.69;90.36;101600.03;5012544;28;20042;-60
2022/07/21 06:15:57;;;;;;;27.77;20.23;;;;;;;18.64;90.49;101595.47;5012164;28;20104;-60
2022/07/21 06:18:22;;;;;;;28.92;21.33;;;;;;;18.70;89.87;101599.69;5011718;28;20058;-59
2022/07/21 06:20:48;;;;;;;27.70;20.85;;;;;;;18.70;90.16;101596.09;5012041;28;20544;-60
2022/07/21 06:23:13;;;;;;;30.77;22.20;;;;;;;18.67;89.45;101596.75;5011915;28;20038;-60
2022/07/21 06:25:38;;;;;;;29.13;20.75;;;;;;;18.77;89.29;101592.69;5011840;28;20045;-60
2022/07/21 06:28:04;;;;;;;29.23;21.20;;;;;;;18.84;89.22;101592.97;5012018;28;20104;-60
2022/07/21 06:30:29;;;;;;;29.75;22.27;;;;;;;18.88;89.27;101585.50;5011719;28;20018;-60
2022/07/21 06:32:54;;;;;;;30.33;22.95;;;;;;;19.05;88.27;101587.34;5011824;28;20106;-60
2022/07/21 06:35:20;;;;;;;29.38;21.33;;;;;;;19.24;86.95;101597.22;5011523;28;20076;-60
2022/07/21 06:37:46;;;;;;;29.30;22.50;;;;;;;19.38;86.57;101606.09;5011607;28;20052;-60
2022/07/21 06:40:12;;;;;;;31.55;21.92;;;;;;;19.48;86.29;101602.03;5011435;28;20030;-60
2022/07/21 06:42:38;;;;;;;33.22;23.30;;;;;;;19.54;85.53;101597.81;5011580;28;20175;-60
2022/07/21 06:45:04;;;;;;;32.90;23.30;;;;;;;19.74;85.27;101606.50;5011642;28;20124;-60
2022/07/21 06:47:29;;;;;;;31.40;23.52;;;;;;;19.94;84.08;101610.34;5011676;28;20022;-60
2022/07/21 06:49:55;;;;;;;32.97;22.88;;;;;;;20.14;82.50;101605.78;5011449;28;20040;-60
2022/07/21 06:52:20;;;;;;;33.53;23.85;;;;;;;20.36;82.98;101601.66;5011640;28;20040;-60
2022/07/21 06:54:46;;;;;;;35.45;24.27;;;;;;;20.50;80.36;101603.25;4993896;28;20021;-60
2022/07/21 06:57:11;;;;;;;31.63;22.95;;;;;;;20.53;80.24;101599.72;5011488;28;20057;-60
2022/07/21 06:59:36;;;;;;;33.47;24.20;;;;;;;20.37;80.91;101603.28;5011702;28;20363;-60
2022/07/21 07:02:02;;;;;;;33.95;24.30;;;;;;;20.29;81.30;101604.25;5011258;28;20143;-60
2022/07/21 07:04:27;;;;;;;34.22;24.20;;;;;;;20.17;81.14;101607.88;5011746;28;20504;-60
2022/07/21 07:06:54;;;;;;;34.55;24.17;;;;;;;20.15;81.61;101610.25;5011406;28;20125;-60
2022/07/21 07:09:19;;;;;;;32.25;24.25;;;;;;;20.14;81.89;101617.03;5011297;28;20032;-60
2022/07/21 07:11:46;;;;;;;34.35;24.45;;;;;;;20.22;82.02;101612.44;5011141;28;20449;-60
2022/07/21 07:14:13;;;;;;;32.88;23.88;;;;;;;20.37;80.98;101599.63;5011313;28;20029;-60
2022/07/21 07:16:39;;;;;;;31.88;24.00;;;;;;;20.40;80.72;101604.56;5011069;28;20482;-60
2022/07/21 07:19:04;;;;;;;35.03;24.50;;;;;;;20.41;79.79;101607.00;5010858;28;20099;-60
2022/07/21 07:21:29;;;;;;;33.08;24.63;;;;;;;20.28;80.57;101602.59;5011188;28;20034;-60
2022/07/21 07:23:54;;;;;;;32.25;23.73;;;;;;;20.20;81.02;101612.78;5011084;28;20036;-60
2022/07/21 07:26:20;;;;;;;33.95;25.35;;;;;;;20.13;81.85;101608.94;5011289;28;20025;-60
2022/07/21 07:28:45;;;;;;;33.15;24.80;;;;;;;20.08;82.10;101610.84;5011204;28;20112;-60
2022/07/21 07:31:10;;;;;;;30.67;23.58;;;;;;;20.04;82.12;101620.31;5010923;28;20041;-61
2022/07/21 07:33:36;;;;;;;31.02;23.00;;;;;;;20.07;82.46;101620.44;5010989;28;20129;-60
2022/07/21 07:36:01;;;;;;;30.70;23.00;;;;;;;20.15;82.19;101624.28;5011011;28;20462;-60
2022/07/21 07:38:26;;;;;;;34.35;23.55;;;;;;;20.22;81.53;101620.84;5010965;28;20101;-60
2022/07/21 07:40:52;;;;;;;32.55;24.10;;;;;;;20.26;80.66;101608.56;5010708;28;20088;-61
2022/07/21 07:43:17;;;;;;;32.17;23.67;;;;;;;20.21;81.34;101608.00;5010850;28;20338;-60
2022/07/21 07:45:42;;;;;;;33.50;24.27;;;;;;;20.28;80.29;101616.66;5010619;28;20018;-60
2022/07/21 07:48:08;;;;;;;32.28;22.38;;;;;;;20.22;80.21;101618.06;5010869;28;20077;-61
2022/07/21 07:50:33;;;;;;;33.40;23.73;;;;;;;20.12;80.93;101610.94;5010801;28;20339;-60
2022/07/21 07:52:58;;;;;;;31.20;23.05;;;;;;;20.11;81.04;101620.53;5013011;28;20026;-61
2022/07/21 07:55:24;;;;;;;33.08;23.77;;;;;;;20.08;82.07;101619.25;5014549;28;20034;-60
2022/07/21 07:57:49;;;;;;;31.58;23.73;;;;;;;20.09;82.59;101620.06;5014767;28;20121;-60
2022/07/21 08:00:17;;;;;;;32.38;22.88;;;;;;;20.14;81.78;101631.06;5014374;28;20022;-60
2022/07/21 08:02:42;;;;;;;32.60;23.27;;;;;;;20.15;83.25;101620.66;5014140;28;20032;-60
2022/07/21 08:05:08;;;;;;;31.50;22.02;;;;;;;20.09;82.90;101626.50;5014267;28;20030;-60
2022/07/21 08:07:34;;;;;;;32.38;23.55;;;;;;;20.01;83.25;101624.66;5014264;28;20041;-61
2022/07/21 08:10:00;;;;;;;31.10;22.63;;;;;;;19.94;83.25;101630.03;5014197;28;20469;-60
2022/07/21 08:12:25;;;;;;;27.85;19.63;;;;;;;19.85;83.54;101634.91;5014109;28;20030;-61
2022/07/21 08:14:50;;;;;;;28.45;18.75;;;;;;;19.83;83.39;101634.47;5014173;28;20036;-61
2022/07/21 08:17:16;;;;;;;28.10;17.55;;;;;;;19.74;84.49;101637.38;5021373;22;20516;-60
2022/07/21 08:19:42;;;;;;;25.27;16.70;;;;;;;19.52;87.23;101639.44;4994741;28;20350;-59
2022/07/21 08:22:07;;;;;;;22.48;14.85;;;;;;;19.37;87.27;101642.94;4994526;28;20042;-60
2022/07/21 08:24:33;;;;;;;25.23;14.90;;;;;;;19.16;90.33;101644.66;4994344;28;20113;-60
2022/07/21 08:26:58;;;;;;;23.55;15.80;;;;;;;19.01;91.40;101643.31;4994718;28;20027;-61
2022/07/21 08:29:23;;;;;;;22.98;15.30;;;;;;;18.89;92.84;101640.41;4994873;28;20470;-61
2022/07/21 08:31:49;;;;;;;24.42;15.25;;;;;;;18.80;92.58;101646.09;4994583;28;20069;-60
2022/07/21 08:34:14;;;;;;;22.75;14.85;;;;;;;18.77;93.53;101641.19;4994746;28;20474;-60
2022/07/21 08:36:40;;;;;;;24.70;16.42;;;;;;;18.69;94.10;101644.88;4994695;28;20601;-60
2022/07/21 08:39:05;;;;;;;25.02;15.77;;;;;;;18.53;95.45;101634.28;4994183;28;20459;-59
2022/07/21 08:41:32;;;;;;;23.58;15.95;;;;;;;18.45;97.55;101634.34;4994464;28;20053;-59
2022/07/21 08:43:58;;;;;;;23.63;14.35;;;;;;;18.48;96.53;101644.88;4993972;28;20475;-60
2022/07/21 08:46:24;;;;;;;22.77;14.55;;;;;;;18.41;96.44;101634.22;4994152;28;20034;-60
2022/07/21 08:48:50;;;;;;;22.58;14.63;;;;;;;18.42;96.08;101635.84;4976764;28;20395;-59
2022/07/21 08:51:16;;;;;;;24.17;15.27;;;;;;;18.35;97.72;101635.56;4994379;28;20109;-59
2022/07/21 08:53:48;;;;;;;22.85;14.60;;;;;;;18.35;98.36;101632.78;4994101;28;20034;-60
2022/07/21 08:56:14;;;;;;;21.30;14.93;;;;;;;18.43;97.43;101631.06;4993904;28;20512;-59
2022/07/21 08:58:39;;;;;;;20.70;14.45;;;;;;;18.38;98.03;101634.91;4993927;28;20438;-60
2022/07/21 09:01:05;;;;;;;21.60;14.43;;;;;;;18.37;98.61;101630.44;4993983;28;20355;-59
2022/07/21 09:03:32;;;;;;;21.83;14.88;;;;;;;18.40;98.06;101641.78;4992875;28;20387;-59
2022/07/21 09:06:01;;;;;;;22.33;14.75;;;;;;;18.43;99.55;101628.28;4993393;28;20113;-59
2022/07/21 09:08:32;;;;;;;20.85;14.10;;;;;;;18.48;99.22;101631.69;4993812;28;20107;-59
2022/07/21 09:11:23;;;;;;;22.15;14.63;;;;;;;18.47;99.73;101624.44;4993563;28;20161;-59
2022/07/21 09:14:05;;;;;;;21.38;14.73;;;;;;;18.62;98.26;101628.63;4993875;28;20030;-59
2022/07/21 09:16:45;;;;;;;21.63;14.18;;;;;;;18.61;98.40;101629.78;4993199;28;20072;-60
2022/07/21 09:19:18;;;;;;;21.58;14.52;;;;;;;18.70;98.30;101638.13;4975924;28;20027;-60
2022/07/21 09:21:43;;;;;;;20.98;14.38;;;;;;;18.74;97.81;101632.66;4993890;28;20027;-60
2022/07/21 09:24:37;;;;;;;21.00;14.02;;;;;;;18.79;97.39;101638.88;4993459;28;20034;-59
2022/07/21 09:27:16;;;;;;;;;;;;;;;18.92;94.40;101645.34;4993977;28;20133;-61
2022/07/21 09:29:44;;;;;;;21.85;14.38;;;;;;;18.89;96.81;101645.22;4993221;28;19914;-61
2022/07/21 09:32:14;;;;;;;21.38;14.25;;;;;;;18.89;97.36;101645.22;4993162;28;20458;-60
2022/07/21 09:34:40;;;;;;;21.48;15.38;;;;;;;18.88;97.41;101652.78;4993201;28;20034;-60
2022/07/21 09:37:07;;;;;;;21.23;14.88;;;;;;;18.87;96.86;101648.34;4993283;28;20137;-61
2022/07/21 09:39:49;;;;;;;20.90;14.23;;;;;;;18.89;96.60;101645.22;4975677;28;20109;-60
2022/07/21 09:42:17;;;;;;;21.13;15.20;;;;;;;18.89;97.97;101650.81;4993215;28;20161;-60
2022/07/21 09:44:45;;;;;;;20.65;14.57;;;;;;;18.98;97.12;101662.81;4993101;28;20335;-60
2022/07/21 09:47:13;;;;;;;20.45;13.98;;;;;;;19.04;96.20;101660.59;4993208;28;20057;-61
2022/07/21 09:49:39;;;;;;;20.08;13.48;;;;;;;19.09;95.56;101651.97;4993036;28;20128;-61
2022/07/21 09:52:36;;;;;;;21.52;14.65;;;;;;;19.14;95.35;101661.00;4993086;28;20497;-63
2022/07/21 09:55:04;;;;;;;19.65;13.70;;;;;;;19.18;96.22;101664.72;4992473;28;20129;-58
2022/07/21 09:57:30;;;;;;;21.35;14.52;;;;;;;19.16;95.15;101660.63;4993223;28;20018;-60
2022/07/21 09:59:56;;;;;;;20.27;14.00;;;;;;;19.10;96.55;101664.84;4993109;28;20045;-59
2022/07/21 10:02:27;;;;;;;19.73;13.15;;;;;;;18.98;95.44;101657.19;4975504;28;20134;-61
2022/07/21 10:04:59;;;;;;;19.52;13.32;;;;;;;18.98;95.43;101680.44;4993037;28;20031;-60
2022/07/21 10:07:26;;;;;;;20.60;13.57;;;;;;;18.83;95.57;101664.22;4992853;28;20109;-60
2022/07/21 10:09:52;;;;;;;19.40;12.60;;;;;;;18.84;96.34;101672.28;4992717;28;20221;-60
2022/07/21 10:12:18;;;;;;;19.13;12.82;;;;;;;18.89;94.48;101684.47;4992614;28;20103;-59
2022/07/21 10:14:44;;;;;;;19.05;12.65;;;;;;;18.83;95.48;101678.25;4992963;28;20455;-59
2022/07/21 10:17:09;;;;;;;19.83;12.90;;;;;;;18.93;94.85;101682.63;4992451;28;20050;-59
2022/07/21 10:19:53;;;;;;;20.25;12.77;;;;;;;18.94;94.77;101681.47;4992579;28;20419;-59
2022/07/21 10:22:49;;;;;;;19.30;12.40;;;;;;;18.96;93.92;101691.16;4992571;28;20026;-60
2022/07/21 10:25:14;;;;;;;19.45;12.65;;;;;;;18.83;94.75;101689.44;4992343;28;20030;-59
2022/07/21 10:28:12;;;;;;;18.45;12.20;;;;;;;18.86;94.32;101691.56;4992088;28;20030;-59
2022/07/21 10:30:45;;;;;;;17.80;11.45;;;;;;;18.78;94.28;101698.06;4991876;28;20026;-60
2022/07/21 10:33:12;;;;;;;;;;;;;;;18.76;92.79;101686.34;4992487;28;20062;-60
2022/07/21 10:35:42;;;;;;;19.92;13.77;;;;;;;18.73;95.34;101701.88;4992091;28;19968;-60
2022/07/21 10:38:26;;;;;;;18.50;11.98;;;;;;;18.65;95.07;101695.19;4992558;28;20074;-59
2022/07/21 10:40:52;;;;;;;18.52;12.02;;;;;;;18.65;94.95;101703.59;4992207;28;20136;-60
2022/07/21 10:43:23;;;;;;;18.58;12.45;;;;;;;18.65;96.01;101714.81;4991991;28;20502;-61
2022/07/21 10:45:49;;;;;;;18.90;12.45;;;;;;;18.60;95.03;101708.59;4991939;28;20113;-61
2022/07/21 10:48:36;;;;;;;20.10;12.73;;;;;;;18.62;94.74;101711.84;4991851;28;20019;-60
2022/07/21 10:51:03;;;;;;;18.95;12.57;;;;;;;18.56;94.05;101719.66;4992027;28;20033;-60
2022/07/21 10:53:28;;;;;;;19.42;11.93;;;;;;;18.53;94.61;101723.13;4974168;28;20106;-61
2022/07/21 10:55:55;;;;;;;19.23;13.13;;;;;;;18.37;93.99;101697.69;4974262;28;20518;-60
2022/07/21 10:58:20;;;;;;;20.15;12.88;;;;;;;18.52;94.82;101715.88;4991958;28;20069;-61
2022/07/21 11:01:02;;;;;;;20.45;13.13;;;;;;;18.57;94.21;101721.28;4991584;28;20030;-60
2022/07/21 11:03:31;;;;;;;19.88;13.38;;;;;;;18.61;94.23;101707.44;4991303;28;20443;-60
2022/07/21 11:06:06;;;;;;;21.40;13.00;;;;;;;18.75;93.93;101723.97;4991536;28;20034;-60
2022/07/21 11:08:42;;;;;;;20.50;12.85;;;;;;;18.74;92.80;101723.13;4991327;28;20031;-60
2022/07/21 11:11:16;;;;;;;20.27;13.52;;;;;;;18.65;93.70;101716.78;4991726;28;20027;-60